createdAt,value
2023-01-22T00:00:36.121Z,67.19
2023-01-22T00:03:02.728Z,67.25
2023-01-22T00:05:29.374Z,68.64
2023-01-22T00:07:56.125Z,68.51
2023-01-22T00:10:22.799Z,68.68
2023-01-22T00:12:49.478Z,69.12
2023-01-22T00:15:16.106Z,70.96
2023-01-22T00:17:42.727Z,71.00
2023-01-22T00:20:10.203Z,70.95
2023-01-22T00:22:37.014Z,70.89
2023-01-22T00:25:05.440Z,69.78
2023-01-22T00:27:32.095Z,71.74
2023-01-22T00:29:58.733Z,72.24
2023-01-22T00:32:25.305Z,73.17
2023-01-22T00:34:52.751Z,74.46
2023-01-22T00:37:20.386Z,73.92
2023-01-22T00:39:47.314Z,73.21
2023-01-22T00:42:14.594Z,72.32
2023-01-22T00:44:42.047Z,71.36
2023-01-22T00:47:09.582Z,72.35
2023-01-22T00:49:36.277Z,73.87
2023-01-22T00:52:07.703Z,72.15
2023-01-22T00:54:35.045Z,74.16
2023-01-22T00:57:01.780Z,73.21
2023-01-22T00:59:28.354Z,71.56
2023-01-22T01:01:55.124Z,71.16
2023-01-22T01:04:24.497Z,70.73
2023-01-22T01:06:51.082Z,70.94
2023-01-22T01:09:17.786Z,70.78
2023-01-22T01:11:44.455Z,70.70
2023-01-22T01:14:11.046Z,70.90
2023-01-22T01:16:37.735Z,72.98
2023-01-22T01:19:07.886Z,72.22
2023-01-22T01:21:34.786Z,71.54
2023-01-22T01:24:01.808Z,71.10
2023-01-22T01:26:28.721Z,71.19
2023-01-22T01:28:55.556Z,70.96
2023-01-22T01:31:26.274Z,70.73
2023-01-22T01:33:53.225Z,71.63
2023-01-22T01:36:40.472Z,71.04
2023-01-22T01:39:09.960Z,70.90
2023-01-22T01:41:36.639Z,70.50
2023-01-22T01:44:21.086Z,70.40
2023-01-22T01:47:00.407Z,70.18
2023-01-22T01:49:34.977Z,70.45
2023-01-22T01:52:06.275Z,70.69
2023-01-22T01:54:32.975Z,70.44
2023-01-22T01:57:14.649Z,70.48
2023-01-22T01:59:42.968Z,70.57
2023-01-22T02:02:09.641Z,70.13
2023-01-22T02:04:36.296Z,70.23
2023-01-22T02:07:05.586Z,70.10
2023-01-22T02:09:34.633Z,70.06
2023-01-22T02:12:02.974Z,69.86
2023-01-22T02:14:37.014Z,70.28
2023-01-22T02:17:15.744Z,70.03
2023-01-22T02:19:44.193Z,70.33
2023-01-22T02:22:14.693Z,70.01
2023-01-22T02:24:41.549Z,77.53
2023-01-22T02:27:10.299Z,82.72
2023-01-22T02:29:37.056Z,83.76
2023-01-22T02:32:04.254Z,83.33
2023-01-22T02:34:31.093Z,79.85
2023-01-22T02:36:57.781Z,78.59
2023-01-22T02:39:24.456Z,75.71
2023-01-22T02:41:51.675Z,74.11
2023-01-22T02:44:18.346Z,73.65
2023-01-22T02:46:44.996Z,74.66
2023-01-22T02:49:11.723Z,74.88
2023-01-22T02:51:38.417Z,74.35
2023-01-22T02:54:05.424Z,73.45
2023-01-22T02:56:33.894Z,72.84
2023-01-22T02:59:02.515Z,76.10
2023-01-22T03:01:29.304Z,72.88
2023-01-22T03:03:58.336Z,71.56
2023-01-22T03:06:27.349Z,70.98
2023-01-22T03:08:56.870Z,71.37
2023-01-22T03:11:25.238Z,72.35
2023-01-22T03:14:11.784Z,72.13
2023-01-22T03:20:43.690Z,71.33
2023-01-22T03:23:10.277Z,70.31
2023-01-22T03:25:37.887Z,71.05
2023-01-22T03:28:16.653Z,73.38
2023-01-22T03:30:43.291Z,78.80
2023-01-22T03:33:09.880Z,75.61
2023-01-22T03:35:36.516Z,75.19
2023-01-22T03:38:03.117Z,72.61
2023-01-22T03:40:29.731Z,71.79
2023-01-22T03:42:56.325Z,71.29
2023-01-22T03:45:22.889Z,71.32
2023-01-22T03:47:51.315Z,71.03
2023-01-22T03:50:18.405Z,70.43
2023-01-22T03:52:45.182Z,70.17
2023-01-22T03:55:11.813Z,70.12
2023-01-22T03:57:38.411Z,69.84
2023-01-22T04:00:07.668Z,70.04
2023-01-22T04:02:34.576Z,69.83
2023-01-22T04:05:01.328Z,69.70
2023-01-22T04:07:27.927Z,69.29
2023-01-22T04:09:54.521Z,69.25
2023-01-22T04:12:21.102Z,69.17
2023-01-22T04:14:47.656Z,68.73
2023-01-22T04:17:14.260Z,68.64
2023-01-22T04:19:40.865Z,68.79
2023-01-22T04:22:07.516Z,68.53
2023-01-22T04:24:34.132Z,68.53
2023-01-22T04:27:00.762Z,70.15
2023-01-22T04:29:27.360Z,70.86
2023-01-22T04:31:54.028Z,70.54
2023-01-22T04:34:20.658Z,69.77
2023-01-22T04:36:47.291Z,69.91
2023-01-22T04:39:13.834Z,69.22
2023-01-22T04:41:40.418Z,69.27
2023-01-22T04:44:07.068Z,68.99
2023-01-22T04:46:33.709Z,69.42
2023-01-22T04:49:00.316Z,68.23
2023-01-22T04:51:27.085Z,68.92
2023-01-22T04:53:53.744Z,69.10
2023-01-22T04:56:20.372Z,69.11
2023-01-22T04:58:46.949Z,69.01
2023-01-22T05:01:13.590Z,69.08
2023-01-22T05:03:40.281Z,68.74
2023-01-22T05:06:07.038Z,69.06
2023-01-22T05:08:33.817Z,68.76
2023-01-22T05:11:05.267Z,68.53
2023-01-22T05:13:31.988Z,68.29
2023-01-22T05:15:58.726Z,68.05
2023-01-22T05:18:25.385Z,68.89
2023-01-22T05:20:52.055Z,68.60
2023-01-22T05:23:18.657Z,68.02
2023-01-22T05:25:49.523Z,69.30
2023-01-22T05:28:16.193Z,69.26
2023-01-22T05:30:42.879Z,69.63
2023-01-22T05:33:11.411Z,68.66
2023-01-22T05:35:38.169Z,69.43
2023-01-22T05:38:04.849Z,69.26
2023-01-22T05:40:31.528Z,69.08
2023-01-22T05:42:58.149Z,68.32
2023-01-22T05:45:24.945Z,68.42
2023-01-22T05:47:53.421Z,68.88
2023-01-22T05:50:21.496Z,69.10
2023-01-22T05:52:48.192Z,70.73
2023-01-22T05:55:15.231Z,70.71
2023-01-22T05:57:41.942Z,71.63
2023-01-22T06:00:09.245Z,71.56
2023-01-22T06:02:36.141Z,71.99
2023-01-22T06:05:02.807Z,71.26
2023-01-22T06:07:31.063Z,71.55
2023-01-22T06:09:57.677Z,71.11
2023-01-22T06:12:24.392Z,73.33
2023-01-22T06:14:51.213Z,71.45
2023-01-22T06:17:17.809Z,70.54
2023-01-22T06:19:44.380Z,69.73
2023-01-22T06:22:11.035Z,69.40
2023-01-22T06:24:38.013Z,69.96
2023-01-22T06:27:05.131Z,70.03
2023-01-22T06:29:31.799Z,69.76
2023-01-22T06:31:58.425Z,69.50
2023-01-22T06:34:26.234Z,69.59
2023-01-22T06:36:52.927Z,69.45
2023-01-22T06:39:19.722Z,69.12
2023-01-22T06:41:48.070Z,68.85
2023-01-22T06:44:14.750Z,68.93
2023-01-22T06:46:41.420Z,69.08
2023-01-22T06:49:10.287Z,69.32
2023-01-22T06:51:36.934Z,69.67
2023-01-22T06:54:03.915Z,69.75
2023-01-22T06:56:30.546Z,70.44
2023-01-22T06:58:57.338Z,70.67
2023-01-22T07:01:24.001Z,71.77
2023-01-22T07:03:50.695Z,71.62
2023-01-22T07:06:18.931Z,71.30
2023-01-22T07:08:45.624Z,70.98
2023-01-22T07:11:12.280Z,71.28
2023-01-22T07:13:39.016Z,71.41
2023-01-22T07:16:06.266Z,70.52
2023-01-22T07:18:32.990Z,70.46
2023-01-22T07:21:03.988Z,70.17
2023-01-22T07:23:31.150Z,70.33
2023-01-22T07:25:58.311Z,70.17
2023-01-22T07:28:24.901Z,70.04
2023-01-22T07:30:51.599Z,70.11
2023-01-22T07:33:18.234Z,70.29
2023-01-22T07:35:45.722Z,70.39
2023-01-22T07:38:12.358Z,70.24
2023-01-22T07:40:38.898Z,70.40
2023-01-22T07:43:07.125Z,70.04
2023-01-22T07:45:34.701Z,70.10
2023-01-22T07:48:02.573Z,70.22
2023-01-22T07:50:31.940Z,69.52
2023-01-22T07:53:00.711Z,70.27
2023-01-22T07:55:27.582Z,70.32
2023-01-22T07:58:03.703Z,70.08
2023-01-22T08:00:31.295Z,70.00
2023-01-22T08:02:58.061Z,70.10
2023-01-22T08:05:25.055Z,70.47
2023-01-22T08:07:51.742Z,70.62
2023-01-22T08:10:18.973Z,70.78
2023-01-22T08:12:46.736Z,70.68
2023-01-22T08:15:14.194Z,70.65
2023-01-22T08:17:41.327Z,71.03
2023-01-22T08:20:09.182Z,70.56
2023-01-22T08:22:35.863Z,70.64
2023-01-22T08:25:02.579Z,70.51
2023-01-22T08:27:29.181Z,70.44
2023-01-22T08:29:55.837Z,69.82
2023-01-22T08:32:22.533Z,69.62
2023-01-22T08:34:50.691Z,69.36
2023-01-22T08:37:17.365Z,73.19
2023-01-22T08:39:43.947Z,73.67
2023-01-22T08:42:10.592Z,74.14
2023-01-22T08:44:37.244Z,73.74
2023-01-22T08:47:03.984Z,74.27
2023-01-22T08:49:30.995Z,73.97
2023-01-22T08:51:57.712Z,73.17
2023-01-22T08:54:26.228Z,72.73
2023-01-22T08:56:52.941Z,73.64
2023-01-22T08:59:19.636Z,72.35
2023-01-22T09:01:46.385Z,72.60
2023-01-22T09:04:13.151Z,73.98
2023-01-22T09:06:40.186Z,73.58
2023-01-22T09:09:07.096Z,73.17
2023-01-22T09:11:34.355Z,71.99
2023-01-22T09:14:01.112Z,70.11
2023-01-22T09:16:27.864Z,70.52
2023-01-22T09:18:56.917Z,70.68
2023-01-22T09:21:23.483Z,70.91
2023-01-22T09:23:50.082Z,71.93
2023-01-22T09:26:16.722Z,71.28
2023-01-22T09:28:43.331Z,73.17
2023-01-22T09:31:13.261Z,72.75
2023-01-22T09:33:39.948Z,71.50
2023-01-22T09:36:14.920Z,74.22
2023-01-22T09:38:42.060Z,74.90
2023-01-22T09:41:34.534Z,74.64
2023-01-22T09:44:06.450Z,73.28
2023-01-22T09:46:36.149Z,71.66
2023-01-22T09:49:45.763Z,70.98
2023-01-22T09:52:12.483Z,69.96
2023-01-22T09:54:39.114Z,69.29
2023-01-22T09:57:13.039Z,68.81
2023-01-22T09:59:53.432Z,69.38
2023-01-22T10:02:22.926Z,69.17
2023-01-22T10:04:56.523Z,69.71
2023-01-22T10:07:36.508Z,69.69
2023-01-22T10:10:33.005Z,68.97
2023-01-22T10:13:29.109Z,68.58
2023-01-22T10:15:56.718Z,68.73
2023-01-22T10:18:38.678Z,68.56
2023-01-22T10:21:17.454Z,68.54
2023-01-22T10:23:44.399Z,67.89
2023-01-22T10:26:25.108Z,67.53
2023-01-22T10:28:56.460Z,67.69
2023-01-22T10:31:30.941Z,68.62
2023-01-22T10:33:59.757Z,67.50
2023-01-22T10:36:28.410Z,67.54
2023-01-22T10:39:13.806Z,65.73
2023-01-22T10:41:41.718Z,65.70
2023-01-22T10:44:25.969Z,68.92
2023-01-22T10:46:54.605Z,66.75
2023-01-22T10:49:24.087Z,65.45
2023-01-22T10:52:06.237Z,65.40
2023-01-22T10:54:41.744Z,64.82
2023-01-22T10:57:33.992Z,64.39
2023-01-22T11:00:04.291Z,63.68
2023-01-22T11:02:31.624Z,63.58
2023-01-22T11:05:14.496Z,63.23
2023-01-22T11:07:43.080Z,62.47
2023-01-22T11:10:45.618Z,62.17
2023-01-22T11:13:25.240Z,61.90
2023-01-22T11:16:05.434Z,61.98
2023-01-22T11:18:36.552Z,62.12
2023-01-22T11:21:14.428Z,60.67
2023-01-22T11:23:40.985Z,59.54
2023-01-22T11:26:13.342Z,59.64
2023-01-22T11:28:54.892Z,62.50
2023-01-22T11:31:37.698Z,62.49
2023-01-22T11:34:16.407Z,61.47
2023-01-22T11:36:54.191Z,61.59
2023-01-22T11:39:35.651Z,60.32
2023-01-22T11:42:23.739Z,60.83
2023-01-22T11:45:10.492Z,60.70
2023-01-22T11:48:04.221Z,61.10
2023-01-22T11:50:34.093Z,61.82
2023-01-22T11:53:16.642Z,60.58
2023-01-22T11:55:55.202Z,59.11
2023-01-22T11:58:43.885Z,60.84
2023-01-22T12:01:24.107Z,60.53
2023-01-22T12:04:12.688Z,62.00
2023-01-22T12:07:03.896Z,61.61
2023-01-22T12:09:36.316Z,61.24
2023-01-22T12:12:05.845Z,60.91
2023-01-22T12:14:38.616Z,61.10
2023-01-22T12:17:25.670Z,61.45
2023-01-22T12:19:52.229Z,60.60
2023-01-22T12:22:24.416Z,62.16
2023-01-22T12:25:03.094Z,61.34
2023-01-22T12:27:36.948Z,60.79
2023-01-22T12:30:19.972Z,62.85
2023-01-22T12:32:53.327Z,62.61
2023-01-22T12:35:21.920Z,61.87
2023-01-22T12:38:26.917Z,60.98
2023-01-22T12:41:28.726Z,60.35
2023-01-22T12:44:05.062Z,60.61
2023-01-22T12:47:02.783Z,61.46
2023-01-22T12:49:49.493Z,61.07
2023-01-22T12:52:42.641Z,60.99
2023-01-22T12:55:29.729Z,63.27
2023-01-22T12:57:56.744Z,62.81
2023-01-22T13:00:34.903Z,62.42
2023-01-22T13:03:30.925Z,62.60
2023-01-22T13:05:59.794Z,62.25
2023-01-22T13:08:46.909Z,63.10
2023-01-22T13:11:27.968Z,64.11
2023-01-22T13:14:09.973Z,63.41
2023-01-22T13:16:41.757Z,64.87
2023-01-22T13:19:21.585Z,63.08
2023-01-22T13:21:49.145Z,64.01
2023-01-22T13:24:21.350Z,62.45
2023-01-22T13:27:00.470Z,62.29
2023-01-22T13:29:37.858Z,64.45
2023-01-22T13:32:18.515Z,64.75
2023-01-22T13:34:45.162Z,64.27
2023-01-22T13:37:28.489Z,64.41
2023-01-22T13:39:55.223Z,64.03
2023-01-22T13:42:24.723Z,65.21
2023-01-22T13:44:52.233Z,63.29
2023-01-22T13:47:35.605Z,64.38
2023-01-22T13:50:02.704Z,67.00
2023-01-22T13:52:29.736Z,66.64
2023-01-22T13:55:12.179Z,64.01
2023-01-22T13:57:54.414Z,63.66
2023-01-22T14:00:42.366Z,63.94
2023-01-22T14:03:30.105Z,63.41
2023-01-22T14:06:03.776Z,64.22
2023-01-22T14:08:30.663Z,63.69
2023-01-22T14:10:59.307Z,63.85
2023-01-22T14:13:25.992Z,64.72
2023-01-22T14:15:59.532Z,68.36
2023-01-22T14:18:30.394Z,67.29
2023-01-22T14:20:57.066Z,66.73
2023-01-22T14:23:23.740Z,66.69
2023-01-22T14:25:52.607Z,66.54
2023-01-22T14:28:21.729Z,66.00
2023-01-22T14:30:48.900Z,65.38
2023-01-22T14:33:24.178Z,67.79
2023-01-22T14:35:52.170Z,67.03
2023-01-22T14:38:19.074Z,69.77
2023-01-22T14:40:46.313Z,66.99
2023-01-22T14:43:13.063Z,65.57
2023-01-22T14:45:40.954Z,65.94
2023-01-22T14:48:11.492Z,66.39
2023-01-22T14:50:39.409Z,67.51
2023-01-22T14:53:06.238Z,68.84
2023-01-22T14:55:33.383Z,67.79
2023-01-22T14:58:02.526Z,66.48
2023-01-22T15:00:30.156Z,65.91
2023-01-22T15:02:58.028Z,67.72
2023-01-22T15:05:25.749Z,68.25
2023-01-22T15:07:52.653Z,67.11
2023-01-22T15:10:20.238Z,65.20
2023-01-22T15:12:52.213Z,65.21
2023-01-22T15:15:26.308Z,67.68
2023-01-22T15:17:55.857Z,66.96
2023-01-22T15:20:22.902Z,65.66
2023-01-22T15:22:50.046Z,65.11
2023-01-22T15:25:17.330Z,64.53
2023-01-22T15:27:48.420Z,65.48
2023-01-22T15:30:22.814Z,66.29
2023-01-22T15:32:49.502Z,67.49
2023-01-22T15:35:16.289Z,66.33
2023-01-22T15:37:43.109Z,65.86
2023-01-22T15:40:13.988Z,66.18
2023-01-22T15:42:40.630Z,66.58
2023-01-22T15:45:07.948Z,67.00
2023-01-22T15:47:34.661Z,66.50
2023-01-22T15:50:04.398Z,67.19
2023-01-22T15:52:46.122Z,68.19
2023-01-22T15:55:12.756Z,69.48
2023-01-22T15:57:40.034Z,69.97
2023-01-22T16:00:07.304Z,68.75
2023-01-22T16:02:34.060Z,68.12
2023-01-22T16:05:31.741Z,68.64
2023-01-22T16:07:58.300Z,67.18
2023-01-22T16:10:31.372Z,68.70
2023-01-22T16:13:07.076Z,68.60
2023-01-22T16:15:33.996Z,68.70
2023-01-22T16:18:03.632Z,68.72
2023-01-22T16:20:30.433Z,70.14
2023-01-22T16:22:57.030Z,69.53
2023-01-22T16:25:23.658Z,69.60
2023-01-22T16:27:50.283Z,69.27
2023-01-22T16:30:17.447Z,70.19
2023-01-22T16:32:46.154Z,70.43
2023-01-22T16:35:12.777Z,69.55
2023-01-22T16:37:39.377Z,69.77
2023-01-22T16:40:07.401Z,68.18
2023-01-22T16:42:35.840Z,69.99
2023-01-22T16:45:02.637Z,69.02
2023-01-22T16:47:29.227Z,68.90
2023-01-22T16:49:55.878Z,69.41
2023-01-22T16:52:23.253Z,72.44
2023-01-22T16:54:50.637Z,71.17
2023-01-22T16:57:19.339Z,73.20
2023-01-22T16:59:46.265Z,73.36
2023-01-22T17:02:14.862Z,71.89
2023-01-22T17:04:41.582Z,72.84
2023-01-22T17:07:13.553Z,69.78
2023-01-22T17:09:47.611Z,71.91
2023-01-22T17:12:14.457Z,70.11
2023-01-22T17:14:41.122Z,71.90
2023-01-22T17:17:08.876Z,70.55
2023-01-22T17:19:36.362Z,70.60
2023-01-22T17:22:04.167Z,71.78
2023-01-22T17:24:31.582Z,69.79
2023-01-22T17:26:58.423Z,72.41
2023-01-22T17:29:25.787Z,69.64
2023-01-22T17:31:52.538Z,70.23
2023-01-22T17:34:19.204Z,69.47
2023-01-22T17:36:45.880Z,70.35
2023-01-22T17:39:15.762Z,69.19
2023-01-22T17:41:42.987Z,72.26
2023-01-22T17:44:09.938Z,71.11
2023-01-22T17:46:36.878Z,70.38
2023-01-22T17:49:04.777Z,71.01
2023-01-22T17:51:33.784Z,70.15
2023-01-22T17:54:02.338Z,68.59
2023-01-22T17:56:37.795Z,66.14
2023-01-22T17:59:06.292Z,65.74
2023-01-22T18:01:35.198Z,66.96
2023-01-22T18:04:04.986Z,66.83
2023-01-22T18:06:32.134Z,68.70
2023-01-22T18:08:58.874Z,68.76
2023-01-22T18:11:28.077Z,70.47
2023-01-22T18:13:59.941Z,72.98
2023-01-22T18:16:29.492Z,73.78
2023-01-22T18:18:58.346Z,70.84
2023-01-22T18:21:25.545Z,70.33
2023-01-22T18:23:53.094Z,69.99
2023-01-22T18:26:23.026Z,69.89
2023-01-22T18:28:51.093Z,69.61
2023-01-22T18:31:22.392Z,72.87
2023-01-22T18:33:49.321Z,73.43
2023-01-22T18:36:32.187Z,72.39
2023-01-22T18:39:01.268Z,71.35
2023-01-22T18:41:28.305Z,70.72
2023-01-22T18:43:59.748Z,69.95
2023-01-22T18:46:48.588Z,70.34
2023-01-22T18:49:18.824Z,70.72
2023-01-22T18:51:46.377Z,71.41
2023-01-22T18:54:13.414Z,70.58
2023-01-22T18:56:42.944Z,71.98
2023-01-22T18:59:09.665Z,71.63
2023-01-22T19:01:38.420Z,74.62
2023-01-22T19:04:09.207Z,73.89
2023-01-22T19:06:38.630Z,74.49
2023-01-22T19:09:09.791Z,72.30
2023-01-22T19:11:39.244Z,73.52
2023-01-22T19:14:07.281Z,74.04
2023-01-22T19:16:35.338Z,71.53
2023-01-22T19:19:07.836Z,71.08
2023-01-22T19:21:34.511Z,71.11
2023-01-22T19:24:02.275Z,70.67
2023-01-22T19:26:36.245Z,70.66
2023-01-22T19:29:06.795Z,70.38
2023-01-22T19:31:37.954Z,70.66
2023-01-22T19:34:05.978Z,69.69
2023-01-22T19:36:34.869Z,71.67
2023-01-22T19:39:03.736Z,71.17
2023-01-22T19:41:30.636Z,70.37
2023-01-22T19:44:00.747Z,69.79
2023-01-22T19:46:27.861Z,69.53
2023-01-22T19:48:55.141Z,69.34
2023-01-22T19:51:22.975Z,68.96
2023-01-22T19:53:50.009Z,70.06
2023-01-22T19:56:23.443Z,70.07
2023-01-22T19:58:51.439Z,69.94
2023-01-22T20:01:18.378Z,70.30
2023-01-22T20:03:45.230Z,70.15
2023-01-22T20:06:13.435Z,69.89
2023-01-22T20:08:40.757Z,71.22
2023-01-22T20:11:09.524Z,71.18
2023-01-22T20:13:37.720Z,70.08
2023-01-22T20:16:05.401Z,71.15
2023-01-22T20:18:33.101Z,73.04
2023-01-22T20:21:04.890Z,73.36
2023-01-22T20:23:31.796Z,71.99
2023-01-22T20:26:00.609Z,70.96
2023-01-22T20:28:27.284Z,71.18
2023-01-22T20:31:04.141Z,70.34
2023-01-22T20:33:33.375Z,71.63
2023-01-22T20:36:02.669Z,71.16
2023-01-22T20:38:29.437Z,71.50
2023-01-22T20:41:02.297Z,69.07
2023-01-22T20:43:29.239Z,70.48
2023-01-22T20:46:16.881Z,70.30
2023-01-22T20:48:47.367Z,70.60
2023-01-22T20:51:19.529Z,71.42
2023-01-22T20:53:47.367Z,70.38
2023-01-22T20:56:22.774Z,69.95
2023-01-22T20:58:55.644Z,69.40
2023-01-22T21:01:22.400Z,70.38
2023-01-22T21:03:49.302Z,72.77
2023-01-22T21:06:17.969Z,72.25
2023-01-22T21:08:49.231Z,73.85
2023-01-22T21:11:20.420Z,72.08
2023-01-22T21:13:58.625Z,74.76
2023-01-22T21:16:29.687Z,72.92
2023-01-22T21:19:03.081Z,73.04
2023-01-22T21:21:31.364Z,72.89
2023-01-22T21:23:59.067Z,71.80
2023-01-22T21:26:29.752Z,70.55
2023-01-22T21:29:02.652Z,71.64
2023-01-22T21:31:29.771Z,70.38
2023-01-22T21:34:02.678Z,69.73
2023-01-22T21:36:40.950Z,70.04
2023-01-22T21:39:10.003Z,69.57
2023-01-22T21:41:38.225Z,69.34
2023-01-22T21:44:24.504Z,68.89
2023-01-22T21:46:51.147Z,69.70
2023-01-22T21:49:23.346Z,68.66
2023-01-22T21:51:52.751Z,68.76
2023-01-22T21:54:25.239Z,69.73
2023-01-22T21:56:52.623Z,69.66
2023-01-22T21:59:19.393Z,67.80
2023-01-22T22:01:46.836Z,68.03
2023-01-22T22:04:15.074Z,67.93
2023-01-22T22:06:42.213Z,67.25
2023-01-22T22:09:14.471Z,66.89
2023-01-22T22:11:41.636Z,66.68
2023-01-22T22:14:11.269Z,68.85
2023-01-22T22:16:37.975Z,68.29
2023-01-22T22:19:04.632Z,70.65
2023-01-22T22:21:31.262Z,69.17
2023-01-22T22:23:58.280Z,69.08
2023-01-22T22:26:25.936Z,70.10
2023-01-22T22:28:52.882Z,68.90
2023-01-22T22:31:20.319Z,68.26
2023-01-22T22:33:49.769Z,67.10
2023-01-22T22:36:18.259Z,67.49
2023-01-22T22:38:45.226Z,68.68
2023-01-22T22:41:15.197Z,71.77
2023-01-22T22:43:44.497Z,71.91
2023-01-22T22:46:17.965Z,70.39
2023-01-22T22:48:45.981Z,70.72
2023-01-22T22:51:18.548Z,70.09
2023-01-22T22:53:45.630Z,68.99
2023-01-22T22:56:13.287Z,69.68
2023-01-22T22:58:40.024Z,70.08
2023-01-22T23:01:19.816Z,68.49
2023-01-22T23:03:46.569Z,68.11
2023-01-22T23:06:17.647Z,67.82
2023-01-22T23:08:47.614Z,67.64
2023-01-22T23:11:15.831Z,66.50
2023-01-22T23:13:48.190Z,65.82
2023-01-22T23:16:18.349Z,66.04
2023-01-22T23:18:46.277Z,66.74
2023-01-22T23:21:15.457Z,66.19
2023-01-22T23:23:42.363Z,65.82
2023-01-22T23:26:11.863Z,67.78
2023-01-22T23:28:38.861Z,68.67
2023-01-22T23:31:07.306Z,68.25
2023-01-22T23:33:34.023Z,68.59
2023-01-22T23:36:10.288Z,67.39
2023-01-22T23:38:37.459Z,67.54
2023-01-22T23:41:06.006Z,67.89
2023-01-22T23:43:33.406Z,67.48
2023-01-22T23:46:00.795Z,66.62
2023-01-22T23:48:28.087Z,67.74
2023-01-22T23:50:54.988Z,66.07
2023-01-22T23:53:25.064Z,68.47
2023-01-22T23:56:14.863Z,68.16
2023-01-22T23:58:45.028Z,68.35
